Time;durP1;ratioP1;P1;durP2;ratioP2;P2;SDS_P1;SDS_P2;PMS_P1;PMS_P2;Temp;Humidity;BMP_temperature;BMP_pressure;BME280_temperature;BME280_humidity;BME280_pressure;Samples;Min_cycle;Max_cycle;Signal;HPM_P1;HPM_P2
2022/07/19 00:00:24;;;;;;;6.90;6.50;;;25.10;49.00;;;;;;5010075;28;20248;-86
2022/07/19 00:02:51;;;;;;;7.18;6.57;;;24.80;50.20;;;;;;5016752;28;20201;-86
2022/07/19 00:05:17;;;;;;;6.97;6.38;;;24.50;51.10;;;;;;5002102;28;20182;-86
2022/07/19 00:07:45;;;;;;;7.05;6.57;;;24.20;51.70;;;;;;5010887;28;20194;-87
2022/07/19 00:10:12;;;;;;;6.95;6.55;;;24.30;51.60;;;;;;5019725;28;20189;-87
2022/07/19 00:12:39;;;;;;;7.25;6.65;;;24.30;51.10;;;;;;4983647;28;20240;-86
2022/07/19 00:15:06;;;;;;;7.68;7.15;;;24.40;50.80;;;;;;4981671;28;20197;-86
2022/07/19 00:17:32;;;;;;;7.70;7.03;;;24.30;51.40;;;;;;5017242;28;20292;-86
2022/07/19 00:19:58;;;;;;;7.70;7.03;;;24.30;51.20;;;;;;5018541;28;20241;-86
2022/07/19 00:22:24;;;;;;;8.90;7.20;;;24.30;50.90;;;;;;5009700;28;20190;-86
2022/07/19 00:24:49;;;;;;;8.98;7.22;;;24.50;50.50;;;;;;5015336;28;20274;-86
2022/07/19 00:27:15;;;;;;;7.25;6.50;;;24.40;51.00;;;;;;5013795;28;20217;-86
2022/07/19 00:29:41;;;;;;;7.28;6.68;;;24.40;51.50;;;;;;5013088;28;20198;-86
2022/07/19 00:32:07;;;;;;;6.80;6.13;;;24.40;51.40;;;;;;5014871;28;20603;-86
2022/07/19 00:34:32;;;;;;;7.50;6.90;;;24.30;51.70;;;;;;5005030;28;20253;-86
2022/07/19 00:36:58;;;;;;;7.65;6.70;;;24.30;51.70;;;;;;5011228;28;20238;-86
2022/07/19 00:39:24;;;;;;;7.13;6.45;;;24.40;51.10;;;;;;5023477;28;20193;-85
2022/07/19 00:41:50;;;;;;;7.18;6.68;;;24.40;51.50;;;;;;5033823;28;20260;-85
2022/07/19 00:44:16;;;;;;;7.20;6.70;;;24.30;52.00;;;;;;5008022;28;20198;-86
2022/07/19 00:46:42;;;;;;;7.55;6.90;;;24.30;52.10;;;;;;4992040;28;20695;-86
2022/07/19 00:49:07;;;;;;;7.75;7.05;;;24.10;52.70;;;;;;5007345;28;20223;-87
2022/07/19 00:51:37;;;;;;;7.03;6.53;;;24.00;52.80;;;;;;5012024;28;20590;-86
2022/07/19 00:54:03;;;;;;;7.10;6.70;;;24.00;53.30;;;;;;5007875;28;20241;-86
2022/07/19 00:56:33;;;;;;;7.22;6.82;;;24.00;53.30;;;;;;5012395;28;20577;-86
2022/07/19 00:59:01;;;;;;;7.57;6.80;;;23.90;53.40;;;;;;5005859;28;20229;-87
2022/07/19 01:01:28;;;;;;;6.35;5.97;;;23.70;54.50;;;;;;5008956;28;20181;-86
2022/07/19 01:03:55;;;;;;;6.60;6.20;;;23.60;54.80;;;;;;5009796;28;20179;-86
2022/07/19 01:06:22;;;;;;;6.65;6.22;;;23.50;55.30;;;;;;5012284;28;20252;-86
2022/07/19 01:08:47;;;;;;;7.30;6.80;;;23.50;55.00;;;;;;5012140;28;20189;-86
2022/07/19 01:11:13;;;;;;;6.82;6.38;;;23.60;55.00;;;;;;5017141;28;20190;-86
2022/07/19 01:13:39;;;;;;;6.72;6.20;;;23.40;56.60;;;;;;4995413;28;20276;-86
2022/07/19 01:16:05;;;;;;;6.70;6.30;;;23.20;56.50;;;;;;5008466;28;20562;-86
2022/07/19 01:18:30;;;;;;;6.78;6.38;;;23.30;56.00;;;;;;5014819;28;20201;-86
2022/07/19 01:20:57;;;;;;;6.72;6.32;;;23.40;55.90;;;;;;5012453;28;20321;-86
2022/07/19 01:23:23;;;;;;;6.85;6.38;;;23.50;55.50;;;;;;5005976;28;20185;-86
2022/07/19 01:25:49;;;;;;;6.68;6.28;;;23.50;55.60;;;;;;5018314;28;20260;-86
2022/07/19 01:28:15;;;;;;;6.78;6.38;;;23.40;55.50;;;;;;5008831;28;20186;-85
2022/07/19 01:30:41;;;;;;;7.32;6.63;;;23.50;55.60;;;;;;5019117;28;20198;-84
2022/07/19 01:33:07;;;;;;;7.18;6.68;;;23.50;55.70;;;;;;5023294;28;20190;-86
2022/07/19 01:35:33;;;;;;;7.60;7.07;;;23.40;56.10;;;;;;5013780;28;20406;-86
2022/07/19 01:37:59;;;;;;;6.68;6.28;;;23.20;57.00;;;;;;4984529;28;20268;-85
2022/07/19 01:40:25;;;;;;;7.32;6.93;;;23.10;56.90;;;;;;5006701;28;20206;-86
2022/07/19 01:42:51;;;;;;;7.72;6.80;;;23.10;56.70;;;;;;5017664;28;20190;-85
2022/07/19 01:45:18;;;;;;;7.18;6.32;;;23.20;56.30;;;;;;5016965;28;20495;-86
2022/07/19 01:47:45;;;;;;;6.57;6.10;;;23.20;56.00;;;;;;5020585;28;20186;-86
2022/07/19 01:50:12;;;;;;;7.22;6.68;;;23.30;56.00;;;;;;5016744;28;20257;-85
2022/07/19 01:52:38;;;;;;;6.93;6.30;;;23.30;55.80;;;;;;4999875;28;20264;-85
2022/07/19 01:55:04;;;;;;;6.78;6.25;;;23.20;55.90;;;;;;5010615;28;20189;-85
2022/07/19 01:57:30;;;;;;;6.97;6.43;;;23.20;55.80;;;;;;5017303;28;20300;-86
2022/07/19 01:59:57;;;;;;;7.05;6.65;;;23.30;55.50;;;;;;4999624;28;20245;-85
2022/07/19 02:02:22;;;;;;;7.20;6.60;;;23.30;55.80;;;;;;4993944;28;20193;-86
2022/07/19 02:04:48;;;;;;;7.53;7.00;;;23.10;56.50;;;;;;5012667;28;20170;-85
2022/07/19 02:07:14;;;;;;;6.85;6.45;;;23.10;56.40;;;;;;5022412;28;20201;-85
2022/07/19 02:09:40;;;;;;;7.28;6.35;;;23.10;56.70;;;;;;5017006;28;20186;-86
2022/07/19 02:12:06;;;;;;;8.27;6.63;;;23.10;57.00;;;;;;5009420;28;20194;-85
2022/07/19 02:14:32;;;;;;;8.23;6.60;;;22.90;57.50;;;;;;5019584;28;20276;-84
2022/07/19 02:16:58;;;;;;;8.73;7.20;;;23.00;58.60;;;;;;5021384;28;20216;-85
2022/07/19 02:19:23;;;;;;;7.57;7.05;;;22.90;59.60;;;;;;5019288;28;20205;-86
2022/07/19 02:21:49;;;;;;;7.75;7.15;;;22.90;59.60;;;;;;5015304;28;20186;-85
2022/07/19 02:24:15;;;;;;;7.70;7.20;;;23.00;58.60;;;;;;5004011;28;20198;-85
2022/07/19 02:26:40;;;;;;;7.32;6.82;;;23.00;58.50;;;;;;4991539;28;20218;-86
2022/07/19 02:29:06;;;;;;;7.95;7.30;;;23.00;58.10;;;;;;5018496;28;20190;-85
2022/07/19 02:31:33;;;;;;;7.28;6.88;;;22.90;59.00;;;;;;5019132;28;20186;-86
2022/07/19 02:33:58;;;;;;;7.47;6.95;;;22.90;58.30;;;;;;5019561;28;20194;-85
2022/07/19 02:36:24;;;;;;;6.97;6.57;;;23.00;57.90;;;;;;5022114;28;20209;-86
2022/07/19 02:38:50;;;;;;;6.28;5.95;;;22.90;57.90;;;;;;5012198;28;20293;-87
2022/07/19 02:41:17;;;;;;;7.05;6.65;;;22.90;57.70;;;;;;5007259;28;20191;-85
2022/07/19 02:43:43;;;;;;;32.53;8.35;;;22.90;57.90;;;;;;5010902;28;20190;-86
2022/07/19 02:46:09;;;;;;;12.60;7.32;;;22.80;58.10;;;;;;5013762;28;20189;-85
2022/07/19 02:48:35;;;;;;;8.32;7.10;;;22.70;58.20;;;;;;5010779;28;20194;-85
2022/07/19 02:51:01;;;;;;;7.28;6.70;;;22.50;58.60;;;;;;5005394;28;20197;-85
2022/07/19 02:53:27;;;;;;;7.05;6.43;;;22.40;59.60;;;;;;5017953;28;20199;-85
2022/07/19 02:55:53;;;;;;;7.35;6.85;;;22.30;59.80;;;;;;5007145;28;20226;-85
2022/07/19 02:58:18;;;;;;;7.20;6.70;;;22.30;59.60;;;;;;5018694;28;20247;-87
2022/07/19 03:00:44;;;;;;;7.00;6.50;;;22.20;59.90;;;;;;5011154;28;20190;-86
2022/07/19 03:03:55;;;;;;;7.03;6.53;;;22.30;59.50;;;;;;5009468;28;20197;-86
2022/07/19 03:05:56;;;;;;;7.70;7.07;;;22.30;60.20;;;;;;5006211;28;20218;-85
2022/07/19 03:08:21;;;;;;;7.00;6.43;;;22.20;60.40;;;;;;5008398;28;20353;-85
2022/07/19 03:10:47;;;;;;;6.72;6.22;;;22.10;60.10;;;;;;5010145;28;20377;-85
2022/07/19 03:13:13;;;;;;;9.90;6.45;;;22.30;59.60;;;;;;5014508;28;20186;-85
2022/07/19 03:15:39;;;;;;;38.78;10.00;;;22.20;59.80;;;;;;5011388;28;20225;-86
2022/07/19 03:18:04;;;;;;;51.70;12.25;;;22.10;59.90;;;;;;5009347;28;20190;-85
2022/07/19 03:20:32;;;;;;;22.83;9.02;;;22.20;59.50;;;;;;5012051;28;20229;-84
2022/07/19 03:22:57;;;;;;;31.77;10.32;;;22.20;59.90;;;;;;5000820;28;20197;-85
2022/07/19 03:25:23;;;;;;;9.55;6.82;;;22.20;59.30;;;;;;5011252;28;20372;-85
2022/07/19 03:27:49;;;;;;;7.43;6.40;;;22.30;59.30;;;;;;5011808;28;20208;-86
2022/07/19 03:30:15;;;;;;;6.97;6.13;;;22.10;59.60;;;;;;5017381;28;20170;-85
2022/07/19 03:32:41;;;;;;;7.18;6.50;;;22.10;59.60;;;;;;5026529;28;20275;-85
2022/07/19 03:35:07;;;;;;;7.10;6.60;;;22.10;59.70;;;;;;5019645;28;20194;-85
2022/07/19 03:37:33;;;;;;;6.75;6.13;;;22.00;60.00;;;;;;5022106;28;20213;-85
2022/07/19 03:39:58;;;;;;;6.95;6.35;;;22.00;59.80;;;;;;5019054;28;20224;-85
2022/07/19 03:42:24;;;;;;;6.95;6.45;;;21.90;60.10;;;;;;5019033;28;20658;-84
2022/07/19 03:44:50;;;;;;;8.43;6.57;;;21.90;60.30;;;;;;5020830;28;20221;-85
2022/07/19 03:47:16;;;;;;;6.43;5.97;;;21.90;60.50;;;;;;5012956;28;20292;-85
2022/07/19 03:49:42;;;;;;;7.78;6.13;;;21.80;60.70;;;;;;5018038;28;20267;-86
2022/07/19 03:52:07;;;;;;;6.95;6.35;;;21.90;60.60;;;;;;5001745;28;20275;-85
2022/07/19 03:54:33;;;;;;;6.90;6.40;;;21.80;60.30;;;;;;5019215;28;20265;-85
2022/07/19 03:56:59;;;;;;;6.63;6.13;;;21.80;60.70;;;;;;5020062;28;20213;-85
2022/07/19 03:59:25;;;;;;;7.47;6.78;;;21.80;60.40;;;;;;4998193;28;20229;-85
2022/07/19 04:01:51;;;;;;;7.28;6.72;;;21.80;60.80;;;;;;5021656;28;20193;-85
2022/07/19 04:04:17;;;;;;;6.80;6.10;;;21.70;63.10;;;;;;5024845;28;20189;-86
2022/07/19 04:06:43;;;;;;;5.97;5.57;;;21.50;63.50;;;;;;5014871;28;20210;-85
2022/07/19 04:09:09;;;;;;;6.38;5.82;;;21.40;64.10;;;;;;5018191;28;20204;-86
2022/07/19 04:11:35;;;;;;;6.35;5.95;;;21.40;63.60;;;;;;4998258;28;20190;-85
2022/07/19 04:14:00;;;;;;;10.60;8.73;;;21.50;63.10;;;;;;5015242;28;20197;-87
2022/07/19 04:16:26;;;;;;;8.70;6.47;;;21.50;63.10;;;;;;5002763;28;20297;-87
2022/07/19 04:18:52;;;;;;;6.55;6.03;;;21.60;62.60;;;;;;4999077;28;20209;-86
2022/07/19 04:21:17;;;;;;;8.00;6.13;;;21.50;62.90;;;;;;5022652;28;20194;-86
2022/07/19 04:23:43;;;;;;;6.90;6.20;;;21.50;63.00;;;;;;5012797;28;20197;-87
2022/07/19 04:26:09;;;;;;;6.40;5.90;;;21.50;62.80;;;;;;5023357;28;20774;-86
2022/07/19 04:28:34;;;;;;;6.70;5.88;;;21.50;62.80;;;;;;5014781;28;20571;-86
2022/07/19 04:31:00;;;;;;;5.82;5.28;;;21.50;62.90;;;;;;4998641;28;20261;-86
2022/07/19 04:33:26;;;;;;;13.93;5.97;;;21.60;62.20;;;;;;4996164;28;20209;-86
2022/07/19 04:35:53;;;;;;;6.40;5.80;;;21.60;62.10;;;;;;5004275;28;20205;-86
2022/07/19 04:38:20;;;;;;;6.75;6.10;;;21.70;61.70;;;;;;5013773;28;20182;-86
2022/07/19 04:40:46;;;;;;;7.63;5.80;;;21.60;62.20;;;;;;5021544;28;20216;-86
2022/07/19 04:43:12;;;;;;;6.18;5.68;;;21.60;62.30;;;;;;5024232;28;20620;-87
2022/07/19 04:45:40;;;;;;;16.08;6.75;;;21.60;62.40;;;;;;5015983;28;20220;-86
2022/07/19 04:48:06;;;;;;;6.72;5.95;;;21.50;62.80;;;;;;4999513;28;20212;-86
2022/07/19 04:50:32;;;;;;;7.30;5.93;;;21.60;63.40;;;;;;5018226;28;20181;-86
2022/07/19 04:52:57;;;;;;;12.55;6.70;;;21.60;62.90;;;;;;5023270;28;20200;-86
2022/07/19 04:55:23;;;;;;;7.88;6.45;;;21.60;62.70;;;;;;5017721;28;20194;-86
2022/07/19 04:57:49;;;;;;;10.85;6.25;;;21.70;62.60;;;;;;5001171;28;20249;-86
2022/07/19 05:00:15;;;;;;;8.68;6.63;;;21.70;63.10;;;;;;5027194;28;20705;-89
2022/07/19 05:02:41;;;;;;;11.27;6.43;;;21.70;63.40;;;;;;5007544;28;20177;-85
2022/07/19 05:05:08;;;;;;;6.65;6.03;;;21.70;63.90;;;;;;5022280;28;20186;-89
2022/07/19 05:07:33;;;;;;;11.82;6.50;;;21.80;63.70;;;;;;5027013;28;20225;-86
2022/07/19 05:09:59;;;;;;;8.90;6.55;;;21.80;63.00;;;;;;5002664;28;20190;-88
2022/07/19 05:12:25;;;;;;;11.68;6.60;;;21.80;63.60;;;;;;5010171;28;20201;-85
2022/07/19 05:14:51;;;;;;;8.50;5.90;;;21.90;63.60;;;;;;5007596;28;20193;-85
2022/07/19 05:17:16;;;;;;;12.02;6.47;;;22.00;63.10;;;;;;5007194;28;20212;-86
2022/07/19 05:19:42;;;;;;;8.02;6.22;;;22.10;63.60;;;;;;5026325;28;20332;-88
2022/07/19 05:22:08;;;;;;;8.07;7.05;;;22.10;63.10;;;;;;4991646;28;20182;-87
2022/07/19 05:24:34;;;;;;;7.18;6.60;;;22.20;62.80;;;;;;5017334;28;20193;-87
2022/07/19 05:27:00;;;;;;;6.72;6.20;;;22.20;63.10;;;;;;5010376;28;20222;-87
2022/07/19 05:29:26;;;;;;;7.05;6.35;;;22.10;62.80;;;;;;4997983;28;20206;-88
2022/07/19 05:31:51;;;;;;;7.00;5.57;;;21.90;62.90;;;;;;5012390;28;20178;-88
2022/07/19 05:34:17;;;;;;;6.88;6.28;;;22.00;62.50;;;;;;4980960;28;20240;-87
2022/07/19 05:36:43;;;;;;;30.02;16.63;;;22.10;63.70;;;;;;5017852;28;20217;-87
2022/07/19 05:39:09;;;;;;;13.18;9.95;;;22.10;63.00;;;;;;5016647;28;20312;-88
2022/07/19 05:41:35;;;;;;;7.75;7.03;;;22.20;62.10;;;;;;5026945;28;20190;-88
2022/07/19 05:44:00;;;;;;;7.40;6.70;;;22.10;61.90;;;;;;5016125;28;20185;-87
2022/07/19 05:46:26;;;;;;;16.48;7.00;;;22.20;62.20;;;;;;5011392;28;20230;-85
2022/07/19 05:48:52;;;;;;;7.10;6.30;;;22.10;62.30;;;;;;5013990;28;20186;-87
2022/07/19 05:51:18;;;;;;;13.60;7.25;;;22.20;63.00;;;;;;5004246;28;20205;-85
2022/07/19 05:53:43;;;;;;;6.80;5.78;;;22.20;64.10;;;;;;5014784;28;20190;-85
2022/07/19 05:56:10;;;;;;;7.03;6.25;;;22.40;62.20;;;;;;5006403;28;20214;-86
2022/07/19 05:58:36;;;;;;;6.47;5.88;;;22.60;61.10;;;;;;4993883;28;20197;-87
2022/07/19 06:01:18;;;;;;;8.95;6.38;;;22.70;60.30;;;;;;5011492;28;20198;-86
2022/07/19 06:03:48;;;;;;;7.40;5.97;;;22.80;58.60;;;;;;5012309;28;20248;-86
2022/07/19 06:06:15;;;;;;;9.75;6.70;;;22.90;56.70;;;;;;5014364;28;20209;-86
2022/07/19 06:08:41;;;;;;;7.18;6.60;;;22.80;55.90;;;;;;5001435;28;20205;-86
2022/07/19 06:11:06;;;;;;;8.15;6.85;;;22.90;56.80;;;;;;5019804;28;20182;-86
2022/07/19 06:13:32;;;;;;;10.27;7.55;;;22.90;57.00;;;;;;5012947;28;20672;-86
2022/07/19 06:15:58;;;;;;;8.80;7.22;;;23.10;57.70;;;;;;5022275;28;20209;-87
2022/07/19 06:18:24;;;;;;;9.55;6.90;;;23.10;57.50;;;;;;5028455;28;20186;-88
2022/07/19 06:20:50;;;;;;;8.18;7.18;;;23.20;56.90;;;;;;5015374;28;20221;-86
2022/07/19 06:23:15;;;;;;;7.47;6.82;;;23.30;55.80;;;;;;5019751;28;20210;-87
2022/07/19 06:25:41;;;;;;;8.65;7.80;;;23.40;54.60;;;;;;4973542;28;20216;-86
2022/07/19 06:28:07;;;;;;;9.35;7.35;;;23.40;54.10;;;;;;5001159;28;20198;-87
2022/07/19 06:30:32;;;;;;;9.82;7.88;;;23.50;53.60;;;;;;4992639;28;20201;-86
2022/07/19 06:32:59;;;;;;;7.40;6.70;;;23.70;53.60;;;;;;5007890;28;20531;-87
2022/07/19 06:35:25;;;;;;;10.60;7.53;;;23.70;53.10;;;;;;4986386;28;20293;-86
2022/07/19 06:37:51;;;;;;;8.15;7.30;;;23.80;51.50;;;;;;5009591;28;20624;-87
2022/07/19 06:40:17;;;;;;;9.30;7.72;;;23.90;53.40;;;;;;5015391;28;20260;-86
2022/07/19 06:42:43;;;;;;;7.68;7.20;;;24.00;52.50;;;;;;5023535;28;20202;-86
2022/07/19 06:45:09;;;;;;;8.23;7.63;;;24.10;52.20;;;;;;5005949;28;20315;-86
2022/07/19 06:47:35;;;;;;;8.15;7.38;;;24.20;52.30;;;;;;5022884;28;20181;-87
2022/07/19 06:50:01;;;;;;;8.00;7.40;;;24.30;51.30;;;;;;5020719;28;20872;-87
2022/07/19 06:52:27;;;;;;;7.55;7.00;;;24.40;51.00;;;;;;5003587;28;20217;-86
2022/07/19 06:54:52;;;;;;;8.45;7.60;;;24.50;50.40;;;;;;4995683;28;20197;-87
2022/07/19 06:57:18;;;;;;;8.40;7.70;;;24.70;50.10;;;;;;5015708;28;20413;-89
2022/07/19 06:59:44;;;;;;;7.70;7.10;;;24.70;50.40;;;;;;5005647;28;20210;-87
2022/07/19 07:02:10;;;;;;;8.38;7.65;;;24.80;50.40;;;;;;5022231;28;20186;-86
2022/07/19 07:04:35;;;;;;;7.90;7.30;;;24.90;50.40;;;;;;5022997;28;20186;-87
2022/07/19 07:07:01;;;;;;;8.18;7.47;;;25.00;49.30;;;;;;5022726;28;20228;-86
2022/07/19 07:09:27;;;;;;;8.73;8.07;;;25.10;50.10;;;;;;5024059;28;20189;-87
2022/07/19 07:11:52;;;;;;;13.25;7.40;;;25.20;50.40;;;;;;5020382;28;20189;-88
2022/07/19 07:14:18;;;;;;;8.57;7.65;;;25.30;49.00;;;;;;5015157;28;20178;-87
2022/07/19 07:16:44;;;;;;;9.93;8.00;;;25.40;49.70;;;;;;5018994;28;20217;-86
2022/07/19 07:19:10;;;;;;;8.90;8.13;;;25.50;49.50;;;;;;5019488;28;20260;-86
2022/07/19 07:21:36;;;;;;;8.48;7.97;;;25.50;49.80;;;;;;5000591;28;20186;-87
2022/07/19 07:24:02;;;;;;;8.52;7.82;;;25.60;50.40;;;;;;5015000;28;20661;-86
2022/07/19 07:26:28;;;;;;;8.75;8.15;;;25.70;49.90;;;;;;5022293;28;20205;-86
2022/07/19 07:28:54;;;;;;;8.52;7.88;;;25.80;50.90;;;;;;4998675;28;20266;-86
2022/07/19 07:31:19;;;;;;;7.95;7.45;;;25.90;50.90;;;;;;5018394;28;20661;-87
2022/07/19 07:33:45;;;;;;;8.57;7.88;;;25.90;51.70;;;;;;5021547;28;20194;-86
2022/07/19 07:36:11;;;;;;;8.48;7.97;;;26.00;51.50;;;;;;5020464;28;20217;-86
2022/07/19 07:38:37;;;;;;;12.05;8.38;;;26.10;49.10;;;;;;5022859;28;20195;-86
2022/07/19 07:41:06;;;;;;;9.40;8.50;;;26.10;49.50;;;;;;5011202;28;20190;-87
2022/07/19 07:43:31;;;;;;;8.82;8.07;;;26.30;49.00;;;;;;5017791;28;20237;-87
2022/07/19 07:45:57;;;;;;;8.75;8.05;;;26.30;47.50;;;;;;5012250;28;20228;-85
2022/07/19 07:48:23;;;;;;;8.85;8.05;;;26.40;48.00;;;;;;5022485;28;20212;-85
2022/07/19 07:50:49;;;;;;;9.50;8.55;;;26.50;47.10;;;;;;5022348;28;20225;-86
2022/07/19 07:53:15;;;;;;;9.88;8.98;;;26.60;48.80;;;;;;5016054;28;20670;-86
2022/07/19 07:55:41;;;;;;;9.63;8.73;;;26.60;48.30;;;;;;5003155;28;20211;-86
2022/07/19 07:58:10;;;;;;;9.93;8.95;;;26.70;48.70;;;;;;5022956;28;20217;-86
2022/07/19 08:00:37;;;;;;;8.70;8.02;;;26.90;47.30;;;;;;5020152;28;20217;-85
2022/07/19 08:03:04;;;;;;;8.82;8.13;;;27.00;48.50;;;;;;4997021;28;20186;-86
2022/07/19 08:05:30;;;;;;;9.65;8.82;;;27.20;47.50;;;;;;5032869;28;20269;-85
2022/07/19 08:07:56;;;;;;;9.32;8.45;;;27.20;47.80;;;;;;5016373;28;20609;-85
2022/07/19 08:10:24;;;;;;;21.65;14.70;;;27.30;47.90;;;;;;5006215;28;20194;-85
2022/07/19 08:12:50;;;;;;;9.00;8.20;;;27.40;47.40;;;;;;5025240;28;20220;-85
2022/07/19 08:15:16;;;;;;;8.70;7.90;;;27.50;47.70;;;;;;5024153;28;20246;-86
2022/07/19 08:17:41;;;;;;;8.75;8.25;;;27.50;46.90;;;;;;5020622;28;20193;-85
2022/07/19 08:20:08;;;;;;;9.45;8.68;;;27.70;46.10;;;;;;5015847;28;20210;-86
2022/07/19 08:22:34;;;;;;;8.85;8.02;;;27.90;46.40;;;;;;5004858;28;20279;-86
2022/07/19 08:24:59;;;;;;;8.60;7.88;;;28.00;46.30;;;;;;5018487;28;20193;-88
2022/07/19 08:27:25;;;;;;;9.40;8.70;;;28.30;46.60;;;;;;5016929;28;20276;-87
2022/07/19 08:29:51;;;;;;;9.48;8.30;;;28.50;45.40;;;;;;4994952;28;20275;-85
2022/07/19 08:32:17;;;;;;;8.93;8.32;;;28.60;44.80;;;;;;5019682;28;20189;-86
2022/07/19 08:34:43;;;;;;;8.85;8.25;;;28.70;43.40;;;;;;5005461;28;20190;-88
2022/07/19 08:37:09;;;;;;;9.02;8.38;;;28.80;44.10;;;;;;5025827;28;20216;-87
2022/07/19 08:39:34;;;;;;;9.15;8.60;;;28.90;44.70;;;;;;5016729;28;20212;-88
2022/07/19 08:42:00;;;;;;;8.60;8.00;;;28.90;44.30;;;;;;5008872;28;20182;-87
2022/07/19 08:44:28;;;;;;;9.05;8.32;;;29.00;45.00;;;;;;5026583;28;20182;-88
2022/07/19 08:46:54;;;;;;;8.90;8.20;;;29.10;44.00;;;;;;5006835;28;20213;-88
2022/07/19 08:49:21;;;;;;;8.85;8.05;;;29.30;43.00;;;;;;5023577;28;20203;-88
2022/07/19 08:51:48;;;;;;;7.97;7.47;;;29.40;42.90;;;;;;5006443;28;20240;-88
2022/07/19 08:54:15;;;;;;;8.68;7.97;;;29.60;43.60;;;;;;5020925;28;20186;-87
2022/07/19 08:59:25;;;;;;;8.68;7.90;;;30.00;43.90;;;;;;5016796;28;20213;-88
2022/07/19 09:01:51;;;;;;;8.52;7.95;;;30.20;43.50;;;;;;5026003;28;20268;-87
2022/07/19 09:04:21;;;;;;;8.85;8.35;;;30.40;44.10;;;;;;5017525;28;20173;-89
2022/07/19 09:06:54;;;;;;;8.93;8.32;;;30.40;42.10;;;;;;5027680;28;20225;-87
2022/07/19 09:09:31;;;;;;;8.60;7.78;;;30.50;42.80;;;;;;5038694;28;20161;-88
2022/07/19 09:11:59;;;;;;;8.68;7.85;;;30.60;41.60;;;;;;5012126;28;20181;-88
2022/07/19 09:14:28;;;;;;;10.70;7.90;;;30.70;41.00;;;;;;5011842;28;20194;-88
2022/07/19 09:16:54;;;;;;;8.85;8.15;;;30.80;40.30;;;;;;5019978;28;20722;-88
2022/07/19 09:19:22;;;;;;;7.88;7.38;;;31.00;40.60;;;;;;5020079;28;20265;-88
2022/07/19 09:21:56;;;;;;;8.38;7.60;;;31.20;39.20;;;;;;5012110;28;20201;-88
2022/07/19 09:24:23;;;;;;;8.02;7.63;;;31.40;36.50;;;;;;5013473;28;20178;-87
2022/07/19 09:26:56;;;;;;;7.88;7.43;;;31.50;35.40;;;;;;5023140;28;20217;-87
2022/07/19 09:29:22;;;;;;;7.93;7.43;;;31.70;35.40;;;;;;5003967;28;20165;-87
2022/07/19 09:32:11;;;;;;;8.73;8.13;;;31.80;35.50;;;;;;5027512;28;20304;-87
2022/07/19 09:34:48;;;;;;;8.70;8.00;;;31.90;34.50;;;;;;5023862;28;20196;-87
2022/07/19 09:37:15;;;;;;;8.02;7.45;;;31.90;33.90;;;;;;4992534;28;20213;-88
2022/07/19 09:39:44;;;;;;;9.50;7.93;;;32.10;35.10;;;;;;5021744;28;20210;-88
2022/07/19 09:42:31;;;;;;;7.30;6.60;;;32.30;34.70;;;;;;5022703;28;20189;-87
2022/07/19 09:45:06;;;;;;;6.63;6.22;;;32.80;26.70;;;;;;5006907;28;20197;-88
2022/07/19 09:47:36;;;;;;;6.32;5.93;;;33.40;24.20;;;;;;4980607;28;20687;-88
2022/07/19 09:50:17;;;;;;;6.60;6.10;;;33.70;24.00;;;;;;5018674;28;20186;-87
2022/07/19 09:52:44;;;;;;;6.50;6.00;;;34.00;23.70;;;;;;4998922;28;20209;-87
2022/07/19 09:55:11;;;;;;;6.80;6.20;;;34.30;24.30;;;;;;5016929;28;20273;-87
2022/07/19 09:57:44;;;;;;;6.65;6.13;;;34.50;24.50;;;;;;5023674;28;20193;-87
2022/07/19 10:00:12;;;;;;;7.10;6.50;;;34.70;22.90;;;;;;5011965;28;20206;-86
2022/07/19 10:02:43;;;;;;;6.82;6.43;;;34.80;23.40;;;;;;5023329;28;20198;-87
2022/07/19 10:05:12;;;;;;;6.72;6.32;;;35.00;22.40;;;;;;5010509;28;20189;-87
2022/07/19 10:07:40;;;;;;;8.70;6.13;;;35.20;22.60;;;;;;5019322;28;20201;-86
2022/07/19 10:10:12;;;;;;;7.13;6.63;;;35.20;22.40;;;;;;5020779;28;20185;-87
2022/07/19 10:12:39;;;;;;;6.63;6.13;;;35.50;21.90;;;;;;5021532;28;20219;-86
2022/07/19 10:15:07;;;;;;;7.20;6.70;;;35.50;21.40;;;;;;5019227;28;20224;-87
2022/07/19 10:17:39;;;;;;;7.50;7.00;;;35.70;21.90;;;;;;5009095;28;20301;-86
2022/07/19 10:20:06;;;;;;;7.47;6.95;;;36.00;21.10;;;;;;5014054;28;20236;-88
2022/07/19 10:22:33;;;;;;;7.30;6.80;;;36.10;20.60;;;;;;5021482;28;20268;-87
2022/07/19 10:25:11;;;;;;;6.57;6.28;;;36.20;21.20;;;;;;5006851;28;20546;-87
2022/07/19 10:27:44;;;;;;;7.25;6.75;;;36.20;21.10;;;;;;5018736;28;20184;-87
2022/07/19 10:30:12;;;;;;;7.70;7.10;;;36.30;21.60;;;;;;4990853;28;20201;-87
2022/07/19 10:32:40;;;;;;;7.70;7.30;;;36.60;21.60;;;;;;5018397;28;20204;-87
2022/07/19 10:35:21;;;;;;;8.20;7.70;;;36.50;22.70;;;;;;5015214;28;20184;-88
2022/07/19 10:37:50;;;;;;;8.52;8.02;;;36.60;22.60;;;;;;4996985;28;20457;-87
2022/07/19 10:40:35;;;;;;;8.40;7.70;;;36.50;22.40;;;;;;4997508;28;20235;-87
2022/07/19 10:43:05;;;;;;;8.25;7.45;;;36.60;22.90;;;;;;4992813;28;20248;-87
2022/07/19 10:45:30;;;;;;;7.88;7.30;;;36.70;22.60;;;;;;5021822;28;20250;-88
2022/07/19 10:48:01;;;;;;;8.10;7.57;;;36.80;22.40;;;;;;5014053;28;20276;-87
2022/07/19 10:50:54;;;;;;;8.52;7.90;;;37.00;22.40;;;;;;4991110;28;20193;-87
2022/07/19 10:53:42;;;;;;;8.32;7.70;;;37.30;21.50;;;;;;5011348;28;20695;-87
2022/07/19 10:56:17;;;;;;;8.50;8.00;;;37.40;21.90;;;;;;5016189;28;20216;-88
2022/07/19 10:58:54;;;;;;;8.70;7.97;;;37.40;21.40;;;;;;5020326;28;20199;-87
2022/07/19 11:01:22;;;;;;;8.43;7.82;;;37.30;21.10;;;;;;5010983;28;20684;-87
2022/07/19 11:03:49;;;;;;;8.20;7.63;;;37.70;20.90;;;;;;4997229;28;20209;-88
2022/07/19 11:06:21;;;;;;;8.45;7.85;;;37.80;20.70;;;;;;4999910;28;20197;-87
2022/07/19 11:08:47;;;;;;;8.35;7.85;;;37.90;20.20;;;;;;5007469;28;20212;-89
2022/07/19 11:11:23;;;;;;;8.13;7.63;;;38.10;19.40;;;;;;5015008;28;20193;-89
2022/07/19 11:13:55;;;;;;;8.60;7.88;;;38.20;20.40;;;;;;5005912;28;20184;-88
2022/07/19 11:16:24;;;;;;;8.35;7.85;;;38.20;18.90;;;;;;4989987;28;20205;-87
2022/07/19 11:18:50;;;;;;;8.15;7.70;;;38.40;19.00;;;;;;5005327;28;20269;-87
2022/07/19 11:21:16;;;;;;;8.77;7.97;;;38.40;18.70;;;;;;5015010;28;20211;-88
2022/07/19 11:23:43;;;;;;;7.97;7.57;;;38.60;18.60;;;;;;4987122;28;20260;-87
2022/07/19 11:26:17;;;;;;;8.30;7.60;;;38.80;18.90;;;;;;5017888;28;20209;-86
2022/07/19 11:28:44;;;;;;;8.20;7.70;;;38.90;18.10;;;;;;4993926;28;20201;-87
2022/07/19 11:31:18;;;;;;;8.60;7.93;;;38.60;18.30;;;;;;5000989;28;20799;-87
2022/07/19 11:33:46;;;;;;;9.23;8.52;;;38.70;18.30;;;;;;5015931;28;20543;-87
2022/07/19 11:36:15;;;;;;;9.18;8.48;;;39.20;18.20;;;;;;4996139;28;20289;-86
2022/07/19 11:38:53;;;;;;;9.05;8.35;;;39.10;18.30;;;;;;5013384;28;20261;-87
2022/07/19 11:41:21;;;;;;;9.38;8.73;;;39.50;18.60;;;;;;4995493;28;20204;-88
2022/07/19 11:44:06;;;;;;;9.02;8.48;;;39.70;18.30;;;;;;5010514;28;20185;-88
2022/07/19 11:46:39;;;;;;;9.52;9.02;;;39.60;18.20;;;;;;5010462;28;20220;-87
2022/07/19 11:49:15;;;;;;;9.10;8.65;;;39.90;17.80;;;;;;5010553;28;20315;-87
2022/07/19 11:51:40;;;;;;;9.50;8.85;;;40.00;18.70;;;;;;4997387;28;20197;-87
2022/07/19 11:54:07;;;;;;;9.38;8.77;;;40.10;18.10;;;;;;5018685;28;20231;-88
2022/07/19 11:56:35;;;;;;;9.35;8.75;;;40.00;18.10;;;;;;5027252;28;20196;-88
2022/07/19 11:59:03;;;;;;;9.60;8.75;;;40.10;17.90;;;;;;5021235;28;20216;-88
2022/07/19 12:01:37;;;;;;;9.70;9.10;;;40.00;18.20;;;;;;5013109;28;20302;-88
2022/07/19 12:04:06;;;;;;;9.50;8.90;;;40.00;18.30;;;;;;4999518;28;20349;-89
2022/07/19 12:06:38;;;;;;;10.02;9.23;;;40.10;18.20;;;;;;5015100;28;20228;-88
2022/07/19 12:09:24;;;;;;;9.32;8.70;;;40.30;17.80;;;;;;5020728;28;20238;-88
2022/07/19 12:11:55;;;;;;;10.00;9.23;;;40.30;18.00;;;;;;4990979;28;20202;-87
2022/07/19 12:14:37;;;;;;;10.05;9.32;;;40.40;17.20;;;;;;4987887;28;20260;-87
2022/07/19 12:17:20;;;;;;;11.10;10.20;;;40.50;18.00;;;;;;5016837;28;20233;-87
2022/07/19 12:19:49;;;;;;;10.82;10.13;;;40.80;17.90;;;;;;5027043;28;20227;-87
2022/07/19 12:22:30;;;;;;;11.20;10.43;;;40.90;17.50;;;;;;5018318;28;20181;-88
2022/07/19 12:24:56;;;;;;;10.55;10.05;;;40.90;17.70;;;;;;5027110;28;20223;-88
2022/07/19 12:27:27;;;;;;;11.27;10.63;;;41.10;17.70;;;;;;5027659;28;20205;-88
2022/07/19 12:29:54;;;;;;;11.23;10.55;;;41.10;17.50;;;;;;5024587;28;20195;-89
2022/07/19 12:32:38;;;;;;;11.05;10.45;;;41.20;17.40;;;;;;5027392;28;20267;-87
2022/07/19 12:35:13;;;;;;;11.30;10.73;;;41.20;17.50;;;;;;5026668;28;20199;-89
2022/07/19 12:37:50;;;;;;;11.25;10.38;;;41.40;17.10;;;;;;5000835;28;20191;-87
2022/07/19 12:40:20;;;;;;;11.27;10.68;;;41.50;17.50;;;;;;5016278;28;20209;-87
2022/07/19 12:42:50;;;;;;;11.85;11.25;;;41.70;17.60;;;;;;5009658;28;20189;-86
2022/07/19 12:45:21;;;;;;;11.80;11.20;;;41.70;17.10;;;;;;5015280;28;20184;-87
2022/07/19 12:47:48;;;;;;;11.90;11.20;;;41.90;17.50;;;;;;5017389;28;20182;-89
2022/07/19 12:50:24;;;;;;;11.80;11.10;;;41.90;17.00;;;;;;4990167;28;20207;-88